sensor_id;sensor_type;location;lat;lon;timestamp;pressure;altitude;pressure_sealevel;temperature
68446;BMP280;35789;48.414;12.768;2023-12-20T00:00:00;97000.0;;;
68446;BMP280;35789;48.414;12.768;2023-12-20T00:05:00;96990.0;;;
68446;BMP280;35789;48.414;12.768;2023-12-20T00:10:00;96980.0;;;
68446;BMP280;35789;48.414;12.768;2023-12-20T00:15:00;96970.0;;;
68446;BMP280;35789;48.414;12.768;2023-12-20T00:20:00;96960.0;;;
68446;BMP280;35789;48.414;12.768;2023-12-20T00:25:00;96960.0;;;
68446;BMP280;35789;48.414;12.768;2023-12-20T00:30:00;96980.0;;;
68446;BMP280;35789;48.414;12.768;2023-12-20T00:35:00;96990.0;;;
68446;BMP280;35789;48.414;12.768;2023-12-20T00:40:03;96990.0;;;
68446;BMP280;35789;48.414;12.768;2023-12-20T00:45:00;96990.0;;;
68446;BMP280;35789;48.414;12.768;2023-12-20T00:50:00;96990.0;;;
68446;BMP280;35789;48.414;12.768;2023-12-20T00:55:00;97000.0;;;
68446;BMP280;35789;48.414;12.768;2023-12-20T01:00:00;96980.0;;;
68446;BMP280;35789;48.414;12.768;2023-12-20T01:05:00;96970.0;;;
68446;BMP280;35789;48.414;12.768;2023-12-20T01:10:00;96960.0;;;
68446;BMP280;35789;48.414;12.768;2023-12-20T01:15:00;96950.0;;;
68446;BMP280;35789;48.414;12.768;2023-12-20T01:20:00;96950.0;;;
68446;BMP280;35789;48.414;12.768;2023-12-20T01:25:01;96940.0;;;
68446;BMP280;35789;48.414;12.768;2023-12-20T01:30:00;96930.0;;;
68446;BMP280;35789;48.414;12.768;2023-12-20T01:35:00;96920.0;;;
68446;BMP280;35789;48.414;12.768;2023-12-20T01:40:00;96910.0;;;
68446;BMP280;35789;48.414;12.768;2023-12-20T01:45:00;96900.0;;;
68446;BMP280;35789;48.414;12.768;2023-12-20T01:50:01;96900.0;;;
68446;BMP280;35789;48.414;12.768;2023-12-20T01:55:01;96890.0;;;
68446;BMP280;35789;48.414;12.768;2023-12-20T02:00:00;96880.0;;;
68446;BMP280;35789;48.414;12.768;2023-12-20T02:05:00;96870.0;;;
68446;BMP280;35789;48.414;12.768;2023-12-20T02:10:04;96870.0;;;
68446;BMP280;35789;48.414;12.768;2023-12-20T02:15:00;96860.0;;;
68446;BMP280;35789;48.414;12.768;2023-12-20T02:20:00;96860.0;;;
68446;BMP280;35789;48.414;12.768;2023-12-20T02:25:00;96860.0;;;
68446;BMP280;35789;48.414;12.768;2023-12-20T02:30:00;96840.0;;;
68446;BMP280;35789;48.414;12.768;2023-12-20T02:35:00;96820.0;;;
68446;BMP280;35789;48.414;12.768;2023-12-20T02:40:00;96830.0;;;
68446;BMP280;35789;48.414;12.768;2023-12-20T02:45:00;96820.0;;;
68446;BMP280;35789;48.414;12.768;2023-12-20T02:50:00;96810.0;;;
68446;BMP280;35789;48.414;12.768;2023-12-20T02:55:00;96810.0;;;
68446;BMP280;35789;48.414;12.768;2023-12-20T03:00:00;96800.0;;;
68446;BMP280;35789;48.414;12.768;2023-12-20T03:05:00;96790.0;;;
68446;BMP280;35789;48.414;12.768;2023-12-20T03:10:00;96780.0;;;
68446;BMP280;35789;48.414;12.768;2023-12-20T03:15:00;96790.0;;;
68446;BMP280;35789;48.414;12.768;2023-12-20T03:20:00;96790.0;;;
68446;BMP280;35789;48.414;12.768;2023-12-20T03:25:00;96780.0;;;
68446;BMP280;35789;48.414;12.768;2023-12-20T03:30:00;96790.0;;;
68446;BMP280;35789;48.414;12.768;2023-12-20T03:35:00;96810.0;;;
68446;BMP280;35789;48.414;12.768;2023-12-20T03:40:00;96810.0;;;
68446;BMP280;35789;48.414;12.768;2023-12-20T03:45:00;96800.0;;;
68446;BMP280;35789;48.414;12.768;2023-12-20T03:50:00;96800.0;;;
68446;BMP280;35789;48.414;12.768;2023-12-20T03:55:00;96800.0;;;
68446;BMP280;35789;48.414;12.768;2023-12-20T04:00:00;96790.0;;;
68446;BMP280;35789;48.414;12.768;2023-12-20T04:05:00;96790.0;;;
68446;BMP280;35789;48.414;12.768;2023-12-20T04:10:00;96800.0;;;
68446;BMP280;35789;48.414;12.768;2023-12-20T04:15:00;96810.0;;;
68446;BMP280;35789;48.414;12.768;2023-12-20T04:20:00;96820.0;;;
68446;BMP280;35789;48.414;12.768;2023-12-20T04:25:00;96810.0;;;
68446;BMP280;35789;48.414;12.768;2023-12-20T04:30:00;96820.0;;;
68446;BMP280;35789;48.414;12.768;2023-12-20T04:35:00;96830.0;;;
68446;BMP280;35789;48.414;12.768;2023-12-20T04:40:00;96850.0;;;
68446;BMP280;35789;48.414;12.768;2023-12-20T04:45:00;96850.0;;;
68446;BMP280;35789;48.414;12.768;2023-12-20T04:50:00;96850.0;;;
68446;BMP280;35789;48.414;12.768;2023-12-20T04:55:00;96860.0;;;
68446;BMP280;35789;48.414;12.768;2023-12-20T05:00:00;96860.0;;;
68446;BMP280;35789;48.414;12.768;2023-12-20T05:05:00;96850.0;;;
68446;BMP280;35789;48.414;12.768;2023-12-20T05:10:00;96860.0;;;
68446;BMP280;35789;48.414;12.768;2023-12-20T05:15:00;96860.0;;;
68446;BMP280;35789;48.414;12.768;2023-12-20T05:20:00;96850.0;;;
68446;BMP280;35789;48.414;12.768;2023-12-20T05:25:00;96850.0;;;
68446;BMP280;35789;48.414;12.768;2023-12-20T05:30:00;96850.0;;;
68446;BMP280;35789;48.414;12.768;2023-12-20T05:35:00;96860.0;;;
68446;BMP280;35789;48.414;12.768;2023-12-20T05:40:00;96880.0;;;
68446;BMP280;35789;48.414;12.768;2023-12-20T05:45:00;96890.0;;;
68446;BMP280;35789;48.414;12.768;2023-12-20T05:50:00;96910.0;;;
68446;BMP280;35789;48.414;12.768;2023-12-20T05:55:00;96910.0;;;
68446;BMP280;35789;48.414;12.768;2023-12-20T06:00:00;96930.0;;;
68446;BMP280;35789;48.414;12.768;2023-12-20T06:05:00;96940.0;;;
68446;BMP280;35789;48.414;12.768;2023-12-20T06:10:00;96940.0;;;
68446;BMP280;35789;48.414;12.768;2023-12-20T06:15:00;96950.0;;;
68446;BMP280;35789;48.414;12.768;2023-12-20T06:20:00;96940.0;;;
68446;BMP280;35789;48.414;12.768;2023-12-20T06:25:00;96930.0;;;
68446;BMP280;35789;48.414;12.768;2023-12-20T06:30:00;96930.0;;;
68446;BMP280;35789;48.414;12.768;2023-12-20T06:35:00;96930.0;;;
68446;BMP280;35789;48.414;12.768;2023-12-20T06:40:00;96940.0;;;
68446;BMP280;35789;48.414;12.768;2023-12-20T06:45:00;96940.0;;;
68446;BMP280;35789;48.414;12.768;2023-12-20T06:50:01;96950.0;;;
68446;BMP280;35789;48.414;12.768;2023-12-20T06:55:00;96960.0;;;
68446;BMP280;35789;48.414;12.768;2023-12-20T07:00:00;96960.0;;;
68446;BMP280;35789;48.414;12.768;2023-12-20T07:05:00;96970.0;;;
68446;BMP280;35789;48.414;12.768;2023-12-20T07:10:00;96980.0;;;
68446;BMP280;35789;48.414;12.768;2023-12-20T07:15:00;96980.0;;;
68446;BMP280;35789;48.414;12.768;2023-12-20T07:20:00;97000.0;;;
68446;BMP280;35789;48.414;12.768;2023-12-20T07:25:00;97000.0;;;
68446;BMP280;35789;48.414;12.768;2023-12-20T07:30:00;97010.0;;;
68446;BMP280;35789;48.414;12.768;2023-12-20T07:35:01;97010.0;;;
68446;BMP280;35789;48.414;12.768;2023-12-20T07:40:00;97020.0;;;
68446;BMP280;35789;48.414;12.768;2023-12-20T07:45:00;97030.0;;;
68446;BMP280;35789;48.414;12.768;2023-12-20T07:50:00;97030.0;;;
68446;BMP280;35789;48.414;12.768;2023-12-20T07:55:00;97020.0;;;
68446;BMP280;35789;48.414;12.768;2023-12-20T08:00:00;97020.0;;;
68446;BMP280;35789;48.414;12.768;2023-12-20T08:05:00;97020.0;;;
68446;BMP280;35789;48.414;12.768;2023-12-20T08:10:03;97020.0;;;
68446;BMP280;35789;48.414;12.768;2023-12-20T08:15:01;97030.0;;;
68446;BMP280;35789;48.414;12.768;2023-12-20T08:20:00;97040.0;;;
68446;BMP280;35789;48.414;12.768;2023-12-20T08:25:00;97040.0;;;
68446;BMP280;35789;48.414;12.768;2023-12-20T08:30:00;97040.0;;;
68446;BMP280;35789;48.414;12.768;2023-12-20T08:35:00;97050.0;;;
68446;BMP280;35789;48.414;12.768;2023-12-20T08:40:00;97050.0;;;
68446;BMP280;35789;48.414;12.768;2023-12-20T08:45:00;97050.0;;;
68446;BMP280;35789;48.414;12.768;2023-12-20T08:50:00;97050.0;;;
68446;BMP280;35789;48.414;12.768;2023-12-20T08:55:00;97060.0;;;
68446;BMP280;35789;48.414;12.768;2023-12-20T09:00:00;97050.0;;;
68446;BMP280;35789;48.414;12.768;2023-12-20T09:05:00;97050.0;;;
68446;BMP280;35789;48.414;12.768;2023-12-20T09:10:00;97050.0;;;
68446;BMP280;35789;48.414;12.768;2023-12-20T09:15:02;97060.0;;;
68446;BMP280;35789;48.414;12.768;2023-12-20T09:20:00;97060.0;;;
68446;BMP280;35789;48.414;12.768;2023-12-20T09:25:00;97050.0;;;
68446;BMP280;35789;48.414;12.768;2023-12-20T09:30:00;97050.0;;;
68446;BMP280;35789;48.414;12.768;2023-12-20T09:35:00;97060.0;;;
68446;BMP280;35789;48.414;12.768;2023-12-20T09:40:00;97060.0;;;
68446;BMP280;35789;48.414;12.768;2023-12-20T09:45:02;97050.0;;;
68446;BMP280;35789;48.414;12.768;2023-12-20T09:50:01;97050.0;;;
68446;BMP280;35789;48.414;12.768;2023-12-20T09:55:01;97050.0;;;
68446;BMP280;35789;48.414;12.768;2023-12-20T10:00:00;97050.0;;;
68446;BMP280;35789;48.414;12.768;2023-12-20T10:05:01;97050.0;;;
68446;BMP280;35789;48.414;12.768;2023-12-20T10:10:02;97050.0;;;
68446;BMP280;35789;48.414;12.768;2023-12-20T10:15:00;97030.0;;;
68446;BMP280;35789;48.414;12.768;2023-12-20T10:20:00;97030.0;;;
68446;BMP280;35789;48.414;12.768;2023-12-20T10:25:03;97030.0;;;
68446;BMP280;35789;48.414;12.768;2023-12-20T10:30:00;97020.0;;;
68446;BMP280;35789;48.414;12.768;2023-12-20T10:35:00;97020.0;;;
68446;BMP280;35789;48.414;12.768;2023-12-20T10:40:04;97010.0;;;
68446;BMP280;35789;48.414;12.768;2023-12-20T10:45:00;97010.0;;;
68446;BMP280;35789;48.414;12.768;2023-12-20T10:50:01;97010.0;;;
68446;BMP280;35789;48.414;12.768;2023-12-20T10:55:00;97010.0;;;
68446;BMP280;35789;48.414;12.768;2023-12-20T11:00:01;97020.0;;;
68446;BMP280;35789;48.414;12.768;2023-12-20T11:05:12;97010.0;;;
68446;BMP280;35789;48.414;12.768;2023-12-20T11:10:10;97010.0;;;
68446;BMP280;35789;48.414;12.768;2023-12-20T11:15:00;97010.0;;;
68446;BMP280;35789;48.414;12.768;2023-12-20T11:20:06;97000.0;;;
68446;BMP280;35789;48.414;12.768;2023-12-20T11:25:05;96990.0;;;
68446;BMP280;35789;48.414;12.768;2023-12-20T11:30:03;96990.0;;;
68446;BMP280;35789;48.414;12.768;2023-12-20T11:35:18;96990.0;;;
68446;BMP280;35789;48.414;12.768;2023-12-20T11:40:02;96980.0;;;
68446;BMP280;35789;48.414;12.768;2023-12-20T11:45:02;96970.0;;;
68446;BMP280;35789;48.414;12.768;2023-12-20T11:50:00;96970.0;;;
68446;BMP280;35789;48.414;12.768;2023-12-20T11:55:00;96970.0;;;
68446;BMP280;35789;48.414;12.768;2023-12-20T12:00:00;96960.0;;;
68446;BMP280;35789;48.414;12.768;2023-12-20T12:05:00;96950.0;;;
68446;BMP280;35789;48.414;12.768;2023-12-20T12:10:00;96940.0;;;
68446;BMP280;35789;48.414;12.768;2023-12-20T12:15:00;96930.0;;;
68446;BMP280;35789;48.414;12.768;2023-12-20T12:20:03;96930.0;;;
68446;BMP280;35789;48.414;12.768;2023-12-20T12:25:10;96920.0;;;
68446;BMP280;35789;48.414;12.768;2023-12-20T12:30:01;96910.0;;;
68446;BMP280;35789;48.414;12.768;2023-12-20T12:35:03;96930.0;;;
68446;BMP280;35789;48.414;12.768;2023-12-20T12:40:00;96930.0;;;
68446;BMP280;35789;48.414;12.768;2023-12-20T12:45:00;96930.0;;;
68446;BMP280;35789;48.414;12.768;2023-12-20T12:50:00;96930.0;;;
68446;BMP280;35789;48.414;12.768;2023-12-20T12:55:00;96930.0;;;
68446;BMP280;35789;48.414;12.768;2023-12-20T13:00:00;96940.0;;;
68446;BMP280;35789;48.414;12.768;2023-12-20T13:05:00;96920.0;;;
68446;BMP280;35789;48.414;12.768;2023-12-20T13:10:00;96930.0;;;
68446;BMP280;35789;48.414;12.768;2023-12-20T13:15:00;96940.0;;;
68446;BMP280;35789;48.414;12.768;2023-12-20T13:20:00;96920.0;;;
68446;BMP280;35789;48.414;12.768;2023-12-20T13:25:00;96920.0;;;
68446;BMP280;35789;48.414;12.768;2023-12-20T13:30:00;96920.0;;;
68446;BMP280;35789;48.414;12.768;2023-12-20T13:35:00;96930.0;;;
68446;BMP280;35789;48.414;12.768;2023-12-20T13:40:00;96940.0;;;
68446;BMP280;35789;48.414;12.768;2023-12-20T13:45:00;96950.0;;;
68446;BMP280;35789;48.414;12.768;2023-12-20T13:50:00;96950.0;;;
68446;BMP280;35789;48.414;12.768;2023-12-20T13:55:00;96950.0;;;
68446;BMP280;35789;48.414;12.768;2023-12-20T14:00:00;96940.0;;;
68446;BMP280;35789;48.414;12.768;2023-12-20T14:05:00;96950.0;;;
68446;BMP280;35789;48.414;12.768;2023-12-20T14:10:00;96950.0;;;
68446;BMP280;35789;48.414;12.768;2023-12-20T14:15:00;96950.0;;;
68446;BMP280;35789;48.414;12.768;2023-12-20T14:20:00;96950.0;;;
68446;BMP280;35789;48.414;12.768;2023-12-20T14:25:00;96970.0;;;
68446;BMP280;35789;48.414;12.768;2023-12-20T14:30:00;96970.0;;;
68446;BMP280;35789;48.414;12.768;2023-12-20T14:35:00;96970.0;;;
68446;BMP280;35789;48.414;12.768;2023-12-20T14:40:00;96970.0;;;
68446;BMP280;35789;48.414;12.768;2023-12-20T14:45:00;96970.0;;;
68446;BMP280;35789;48.414;12.768;2023-12-20T14:50:00;96990.0;;;
68446;BMP280;35789;48.414;12.768;2023-12-20T14:55:04;96980.0;;;
68446;BMP280;35789;48.414;12.768;2023-12-20T15:00:00;96980.0;;;
68446;BMP280;35789;48.414;12.768;2023-12-20T15:05:00;96970.0;;;
68446;BMP280;35789;48.414;12.768;2023-12-20T15:10:00;96980.0;;;
68446;BMP280;35789;48.414;12.768;2023-12-20T15:15:00;96980.0;;;
68446;BMP280;35789;48.414;12.768;2023-12-20T15:20:00;96980.0;;;
68446;BMP280;35789;48.414;12.768;2023-12-20T15:25:00;97000.0;;;
68446;BMP280;35789;48.414;12.768;2023-12-20T15:30:00;96990.0;;;
68446;BMP280;35789;48.414;12.768;2023-12-20T15:35:00;96980.0;;;
68446;BMP280;35789;48.414;12.768;2023-12-20T15:40:00;96970.0;;;
68446;BMP280;35789;48.414;12.768;2023-12-20T15:45:00;96970.0;;;
68446;BMP280;35789;48.414;12.768;2023-12-20T15:50:00;96970.0;;;
68446;BMP280;35789;48.414;12.768;2023-12-20T15:55:00;96980.0;;;
68446;BMP280;35789;48.414;12.768;2023-12-20T16:00:00;96980.0;;;
68446;BMP280;35789;48.414;12.768;2023-12-20T16:05:00;96980.0;;;
68446;BMP280;35789;48.414;12.768;2023-12-20T16:10:00;96980.0;;;
68446;BMP280;35789;48.414;12.768;2023-12-20T16:15:00;96980.0;;;
68446;BMP280;35789;48.414;12.768;2023-12-20T16:20:00;96980.0;;;
68446;BMP280;35789;48.414;12.768;2023-12-20T16:25:00;96980.0;;;
68446;BMP280;35789;48.414;12.768;2023-12-20T16:30:00;96980.0;;;
68446;BMP280;35789;48.414;12.768;2023-12-20T16:35:01;96990.0;;;
68446;BMP280;35789;48.414;12.768;2023-12-20T16:40:00;97000.0;;;
68446;BMP280;35789;48.414;12.768;2023-12-20T16:45:00;97010.0;;;
68446;BMP280;35789;48.414;12.768;2023-12-20T16:50:00;97020.0;;;
68446;BMP280;35789;48.414;12.768;2023-12-20T16:55:00;97020.0;;;
68446;BMP280;35789;48.414;12.768;2023-12-20T17:00:00;97010.0;;;
68446;BMP280;35789;48.414;12.768;2023-12-20T17:05:00;97010.0;;;
68446;BMP280;35789;48.414;12.768;2023-12-20T17:10:04;97020.0;;;
68446;BMP280;35789;48.414;12.768;2023-12-20T17:15:00;97030.0;;;
68446;BMP280;35789;48.414;12.768;2023-12-20T17:20:00;97020.0;;;
68446;BMP280;35789;48.414;12.768;2023-12-20T17:25:00;97020.0;;;
68446;BMP280;35789;48.414;12.768;2023-12-20T17:30:00;97030.0;;;
68446;BMP280;35789;48.414;12.768;2023-12-20T17:35:00;97040.0;;;
68446;BMP280;35789;48.414;12.768;2023-12-20T17:40:00;97050.0;;;
68446;BMP280;35789;48.414;12.768;2023-12-20T17:45:00;97050.0;;;
68446;BMP280;35789;48.414;12.768;2023-12-20T17:50:00;97050.0;;;
68446;BMP280;35789;48.414;12.768;2023-12-20T17:55:00;97050.0;;;
68446;BMP280;35789;48.414;12.768;2023-12-20T18:00:12;97050.0;;;
68446;BMP280;35789;48.414;12.768;2023-12-20T18:05:00;97040.0;;;
68446;BMP280;35789;48.414;12.768;2023-12-20T18:10:00;97050.0;;;
68446;BMP280;35789;48.414;12.768;2023-12-20T18:15:00;97050.0;;;
68446;BMP280;35789;48.414;12.768;2023-12-20T18:20:01;97060.0;;;
68446;BMP280;35789;48.414;12.768;2023-12-20T18:25:00;97060.0;;;
68446;BMP280;35789;48.414;12.768;2023-12-20T18:30:00;97070.0;;;
68446;BMP280;35789;48.414;12.768;2023-12-20T18:35:01;97080.0;;;
68446;BMP280;35789;48.414;12.768;2023-12-20T18:40:01;97070.0;;;
68446;BMP280;35789;48.414;12.768;2023-12-20T18:45:00;97080.0;;;
68446;BMP280;35789;48.414;12.768;2023-12-20T18:50:00;97070.0;;;
68446;BMP280;35789;48.414;12.768;2023-12-20T18:55:00;97060.0;;;
68446;BMP280;35789;48.414;12.768;2023-12-20T19:00:00;97070.0;;;
68446;BMP280;35789;48.414;12.768;2023-12-20T19:05:00;97070.0;;;
68446;BMP280;35789;48.414;12.768;2023-12-20T19:10:00;97060.0;;;
68446;BMP280;35789;48.414;12.768;2023-12-20T19:15:00;97060.0;;;
68446;BMP280;35789;48.414;12.768;2023-12-20T19:20:00;97060.0;;;
68446;BMP280;35789;48.414;12.768;2023-12-20T19:25:03;97050.0;;;
68446;BMP280;35789;48.414;12.768;2023-12-20T19:30:00;97050.0;;;
68446;BMP280;35789;48.414;12.768;2023-12-20T19:35:00;97040.0;;;
68446;BMP280;35789;48.414;12.768;2023-12-20T19:40:00;97040.0;;;
68446;BMP280;35789;48.414;12.768;2023-12-20T19:45:00;97040.0;;;
68446;BMP280;35789;48.414;12.768;2023-12-20T19:50:00;97030.0;;;
68446;BMP280;35789;48.414;12.768;2023-12-20T19:55:00;97030.0;;;
68446;BMP280;35789;48.414;12.768;2023-12-20T20:00:00;97030.0;;;
68446;BMP280;35789;48.414;12.768;2023-12-20T20:05:00;97010.0;;;
68446;BMP280;35789;48.414;12.768;2023-12-20T20:10:00;97020.0;;;
68446;BMP280;35789;48.414;12.768;2023-12-20T20:15:01;97010.0;;;
68446;BMP280;35789;48.414;12.768;2023-12-20T20:20:00;97010.0;;;
68446;BMP280;35789;48.414;12.768;2023-12-20T20:25:00;97000.0;;;
68446;BMP280;35789;48.414;12.768;2023-12-20T20:30:00;97000.0;;;
68446;BMP280;35789;48.414;12.768;2023-12-20T20:35:00;97000.0;;;
68446;BMP280;35789;48.414;12.768;2023-12-20T20:40:00;97000.0;;;
68446;BMP280;35789;48.414;12.768;2023-12-20T20:45:00;96990.0;;;
68446;BMP280;35789;48.414;12.768;2023-12-20T20:50:00;96970.0;;;
68446;BMP280;35789;48.414;12.768;2023-12-20T20:55:00;96960.0;;;
68446;BMP280;35789;48.414;12.768;2023-12-20T21:00:00;96970.0;;;
68446;BMP280;35789;48.414;12.768;2023-12-20T21:05:00;96970.0;;;
68446;BMP280;35789;48.414;12.768;2023-12-20T21:10:01;96980.0;;;
68446;BMP280;35789;48.414;12.768;2023-12-20T21:15:00;96970.0;;;
68446;BMP280;35789;48.414;12.768;2023-12-20T21:20:00;96970.0;;;
68446;BMP280;35789;48.414;12.768;2023-12-20T21:25:00;96970.0;;;
68446;BMP280;35789;48.414;12.768;2023-12-20T21:30:00;96970.0;;;
68446;BMP280;35789;48.414;12.768;2023-12-20T21:35:00;96960.0;;;
68446;BMP280;35789;48.414;12.768;2023-12-20T21:40:00;96960.0;;;
68446;BMP280;35789;48.414;12.768;2023-12-20T21:45:00;96960.0;;;
68446;BMP280;35789;48.414;12.768;2023-12-20T21:50:00;96950.0;;;
68446;BMP280;35789;48.414;12.768;2023-12-20T21:55:00;96930.0;;;
68446;BMP280;35789;48.414;12.768;2023-12-20T22:00:00;96920.0;;;
68446;BMP280;35789;48.414;12.768;2023-12-20T22:05:00;96930.0;;;
68446;BMP280;35789;48.414;12.768;2023-12-20T22:10:01;96910.0;;;
68446;BMP280;35789;48.414;12.768;2023-12-20T22:15:00;96910.0;;;
68446;BMP280;35789;48.414;12.768;2023-12-20T22:20:00;96910.0;;;
68446;BMP280;35789;48.414;12.768;2023-12-20T22:25:00;96910.0;;;
68446;BMP280;35789;48.414;12.768;2023-12-20T22:30:00;96910.0;;;
68446;BMP280;35789;48.414;12.768;2023-12-20T22:35:00;96910.0;;;
68446;BMP280;35789;48.414;12.768;2023-12-20T22:40:00;96910.0;;;
68446;BMP280;35789;48.414;12.768;2023-12-20T22:45:00;96900.0;;;
68446;BMP280;35789;48.414;12.768;2023-12-20T22:50:00;96900.0;;;
68446;BMP280;35789;48.414;12.768;2023-12-20T22:55:00;96900.0;;;
68446;BMP280;35789;48.414;12.768;2023-12-20T23:00:00;96880.0;;;
68446;BMP280;35789;48.414;12.768;2023-12-20T23:05:00;96870.0;;;
68446;BMP280;35789;48.414;12.768;2023-12-20T23:10:00;96860.0;;;
68446;BMP280;35789;48.414;12.768;2023-12-20T23:15:00;96860.0;;;
68446;BMP280;35789;48.414;12.768;2023-12-20T23:20:00;96840.0;;;
68446;BMP280;35789;48.414;12.768;2023-12-20T23:25:00;96840.0;;;
68446;BMP280;35789;48.414;12.768;2023-12-20T23:30:00;96820.0;;;
68446;BMP280;35789;48.414;12.768;2023-12-20T23:35:00;96800.0;;;
68446;BMP280;35789;48.414;12.768;2023-12-20T23:40:00;96790.0;;;
68446;BMP280;35789;48.414;12.768;2023-12-20T23:45:00;96780.0;;;
68446;BMP280;35789;48.414;12.768;2023-12-20T23:50:00;96790.0;;;
68446;BMP280;35789;48.414;12.768;2023-12-20T23:55:00;96780.0;;;
